Terminal Aerodrome Forecast
Issued by NWS Cleveland, OH

Home | Current Version | Previous Version | Graphics & Text | Print | Product List | Glossary Off
Versions: 1 2 3 4 5 6 7 8 9 10 11 12 13 14 15 16 17 18 19 20 21 22

000
FTUS41 KCLE 030020 AAA
TAFYNG
TAF AMD
KYNG 030020Z 0300/0324 01008KT P6SM BKN012 OVC080
      TEMPO 0301/0304 SCT012
     FM030600 02003KT 4SM BR OVC007
     FM031500 34004KT P6SM SCT007 OVC012=

USA.gov is the U.S. government's official web portal to all federal, state and local government web resources and services.